Hauptseite
Satellitenwetter 15-Tage PrognosenKlimaSeewetter Wirbelstürme Blitz FlughäfenFAQ Newsletter Über uns
Wetter : Europa Afrika Nordamerika Südamerika Asien Australien-Ozeanien Andere
Sprachen Kontakt

Frankfurt, Deutschland

Breite: 50-03N, Länge: 008-36E, Höhe: 111 m


METAR: EDDF 241620Z 05007KT CAVOK 24/05 Q1014 NOSIG
short-TAF: verfallen (47919 Stunden)
long-TAF: EDDF 241100Z 2412/2518 04006KT CAVOK PROB30 TEMPO 2412/2419 SHRA SCT040CB

Zeit: 18:41 (16:41 UTC)

Beobachtung

Neuester Wetterbericht von vor 21 Minuten, um 16:20 UTC  
Wind 07 kt aus Nordost
Temperatur 24°C
Luftfeuchtigkeit 29%
Luftdruck 1014 hPa
Sichtweite 10 km oder mehr
keine Wolken unter 1500 m und keine Kumulonimbus oder Gewitterwolken

Maßeinheiten ändern

Prognose

Neuester Wetterbericht von vor 5 Stunden und 14 Minuten, um 11:27 UTC  
Gültige Prognose vom 24 um 12 UTC bis 25 um 18 UTC
Wind 06 kt aus Nordost
Sichtweite 10 km oder mehr
keine Wolken unter 1500 m und keine Kumulonimbus oder Gewitterwolken
Wahrscheinlichkeit 30% :
Zeitweise
vom 24 um 12 UTC bis 24 um 19 UTC
Aufgelockert bewölkt in der Höhe von 4000 ft , Kumulonimbus.
Regenschauer
Die Angaben auf diesen Webseiten unterliegen einer Erklärung über den Haftungsausschluss
Wetter : Europa Afrika Nordamerika Südamerika Asien Australien-Ozeanien Andere
Satellitenwetter 15-Tage PrognosenKlimaSeewetter Wirbelstürme Blitz FlughäfenFAQ Sprachen Kontakt Newsletter Über uns